Time;durP1;ratioP1;P1;durP2;ratioP2;P2;SDS_P1;SDS_P2;PMS_P1;PMS_P2;Temp;Humidity;BMP_temperature;BMP_pressure;BME280_temperature;BME280_humidity;BME280_pressure;Samples;Min_cycle;Max_cycle;Signal;HPM_P1;HPM_P2
2023/04/14 00:02:13;;;;;;;7.17;4.70;;;;;;;;;;6312038;28;20576;-77
2023/04/14 00:05:18;;;;;;;12.83;4.90;;;;;;;;;;6334124;28;20293;-76
2023/04/14 00:08:25;;;;;;;13.80;5.03;;;;;;;;;;6334077;28;20296;-75
2023/04/14 00:11:30;;;;;;;9.40;4.63;;;;;;;;;;6317848;28;20612;-76
2023/04/14 00:14:35;;;;;;;9.47;4.70;;;;;;;;;;6313563;28;20293;-77
2023/04/14 00:17:40;;;;;;;12.97;4.73;;;;;;;;;;6313833;28;20297;-76
2023/04/14 00:20:46;;;;;;;12.00;4.80;;;;;;;;;;6313889;28;20293;-76
2023/04/14 00:23:53;;;;;;;13.37;5.00;;;;;;;;;;6313539;28;20482;-75
2023/04/14 00:26:58;;;;;;;9.23;4.73;;;;;;;;;;6314292;28;20317;-77
2023/04/14 00:30:04;;;;;;;7.70;4.73;;;;;;;;;;6295894;28;20298;-77
2023/04/14 00:33:12;;;;;;;12.00;4.97;;;;;;;;;;6313449;28;20306;-76
2023/04/14 00:36:17;;;;;;;11.33;4.13;;;;;;;;;;6313596;28;20490;-76
2023/04/14 00:39:24;;;;;;;7.87;4.60;;;;;;;;;;6313666;28;20301;-77
2023/04/14 00:42:30;;;;;;;11.63;4.33;;;;;;;;;;6313579;28;20289;-76
2023/04/14 00:45:46;;;;;;;14.67;4.63;;;;;;;;;;6295914;28;20299;-76
2023/04/14 00:48:51;;;;;;;10.83;4.60;;;;;;;;;;6312965;28;20291;-76
2023/04/14 00:51:56;;;;;;;14.93;4.43;;;;;;;;;;6296239;28;20288;-74
2023/04/14 00:55:05;;;;;;;17.17;4.97;;;;;;;;;;6313192;28;20355;-76
2023/04/14 00:58:14;;;;;;;12.27;5.17;;;;;;;;;;6313881;28;20439;-76
2023/04/14 01:01:19;;;;;;;13.00;4.70;;;;;;;;;;6314596;28;20476;-76
2023/04/14 01:04:25;;;;;;;10.57;4.23;;;;;;;;;;6261619;22;20232;-73
2023/04/14 01:07:50;;;;;;;13.07;4.90;;;;;;;;;;6186124;28;20293;-72
2023/04/14 01:11:04;;;;;;;9.27;4.47;;;;;;;;;;6251514;28;20296;-73
2023/04/14 01:14:23;;;;;;;10.17;4.53;;;;;;;;;;6250090;28;20296;-72
2023/04/14 01:17:35;;;;;;;14.97;4.73;;;;;;;;;;6186372;28;20301;-72
2023/04/14 01:20:42;;;;;;;11.37;4.63;;;;;;;;;;6249897;28;20447;-72
2023/04/14 01:24:05;;;;;;;15.13;4.70;;;;;;;;;;6250410;28;20453;-72
2023/04/14 01:27:27;;;;;;;10.10;4.40;;;;;;;;;;6268874;28;20320;-72
2023/04/14 01:30:42;;;;;;;13.77;4.60;;;;;;;;;;6251663;28;20476;-72
2023/04/14 01:33:54;;;;;;;15.83;4.70;;;;;;;;;;6251443;28;20296;-71
2023/04/14 01:37:05;;;;;;;12.60;4.30;;;;;;;;;;6185616;28;20305;-73
2023/04/14 01:40:15;;;;;;;11.63;4.50;;;;;;;;;;6250017;28;20300;-73
2023/04/14 01:43:25;;;;;;;12.70;4.30;;;;;;;;;;6251177;28;20297;-73
2023/04/14 01:46:31;;;;;;;11.83;4.53;;;;;;;;;;6186102;28;20296;-73
2023/04/14 01:49:40;;;;;;;8.33;4.30;;;;;;;;;;6185534;28;20299;-73
2023/04/14 01:52:47;;;;;;;7.67;4.30;;;;;;;;;;6268115;28;20304;-72
2023/04/14 01:55:54;;;;;;;8.87;4.70;;;;;;;;;;6250999;28;20321;-73
2023/04/14 01:59:00;;;;;;;7.50;4.67;;;;;;;;;;6251348;28;20359;-73
2023/04/14 02:02:08;;;;;;;14.43;4.27;;;;;;;;;;6268599;28;20315;-73
2023/04/14 02:05:15;;;;;;;5.70;3.83;;;;;;;;;;6301998;28;20312;-73
2023/04/14 02:08:23;;;;;;;6.83;4.50;;;;;;;;;;6285507;28;20305;-73
2023/04/14 02:11:29;;;;;;;11.40;4.20;;;;;;;;;;6284784;28;20311;-73
2023/04/14 02:14:37;;;;;;;11.00;4.50;;;;;;;;;;6300972;28;20292;-72
2023/04/14 02:17:43;;;;;;;11.23;4.17;;;;;;;;;;6285332;28;20302;-73
2023/04/14 02:20:51;;;;;;;6.70;4.03;;;;;;;;;;6300755;28;20302;-73
2023/04/14 02:23:56;;;;;;;11.70;4.17;;;;;;;;;;6284053;28;20306;-72
2023/04/14 02:27:07;;;;;;;8.77;4.17;;;;;;;;;;6286278;28;20300;-72
2023/04/14 02:30:17;;;;;;;8.50;4.33;;;;;;;;;;6283872;28;20306;-72
2023/04/14 02:33:23;;;;;;;14.23;4.40;;;;;;;;;;6283962;28;20332;-72
2023/04/14 02:36:34;;;;;;;9.37;4.07;;;;;;;;;;6284326;28;20300;-72
2023/04/14 02:39:42;;;;;;;9.97;4.37;;;;;;;;;;6285340;28;20293;-72
2023/04/14 02:42:51;;;;;;;11.20;4.30;;;;;;;;;;6300503;28;20481;-72
2023/04/14 02:45:57;;;;;;;6.80;3.80;;;;;;;;;;6284735;28;20544;-72
2023/04/14 02:49:04;;;;;;;17.70;5.07;;;;;;;;;;6283414;28;20299;-72
2023/04/14 02:52:15;;;;;;;11.97;4.13;;;;;;;;;;6284345;28;20297;-73
2023/04/14 02:55:23;;;;;;;6.70;4.67;;;;;;;;;;6283937;28;20295;-72
2023/04/14 02:58:31;;;;;;;9.67;4.33;;;;;;;;;;6300264;28;20301;-71
2023/04/14 03:01:36;;;;;;;12.77;4.53;;;;;;;;;;6270781;28;20321;-72
2023/04/14 03:04:41;;;;;;;12.77;4.10;;;;;;;;;;6280152;28;20295;-72
2023/04/14 03:08:01;;;;;;;12.40;4.10;;;;;;;;;;6278622;28;20302;-74
2023/04/14 03:11:07;;;;;;;7.10;4.17;;;;;;;;;;6272574;28;20289;-72
2023/04/14 03:14:13;;;;;;;8.70;4.27;;;;;;;;;;6282798;28;20306;-72
2023/04/14 03:17:19;;;;;;;9.47;4.03;;;;;;;;;;6283375;28;20316;-72
2023/04/14 03:20:28;;;;;;;11.00;4.60;;;;;;;;;;6264455;28;20290;-71
2023/04/14 03:23:36;;;;;;;8.47;3.80;;;;;;;;;;6274053;28;20586;-72
2023/04/14 03:26:46;;;;;;;8.10;4.70;;;;;;;;;;6257303;28;20302;-73
2023/04/14 03:29:53;;;;;;;10.17;4.47;;;;;;;;;;6257833;28;20301;-72
2023/04/14 03:33:02;;;;;;;10.27;3.80;;;;;;;;;;6257559;28;20301;-73
2023/04/14 03:36:08;;;;;;;10.47;4.30;;;;;;;;;;6247857;28;20297;-73
2023/04/14 03:39:16;;;;;;;11.23;4.50;;;;;;;;;;6299374;28;20312;-72
2023/04/14 03:42:21;;;;;;;11.50;4.43;;;;;;;;;;6284124;28;20501;-72
2023/04/14 03:45:27;;;;;;;10.83;4.80;;;;;;;;;;6281846;28;20302;-72
2023/04/14 03:48:34;;;;;;;10.37;3.93;;;;;;;;;;6281234;28;20301;-72
2023/04/14 03:51:41;;;;;;;12.90;5.37;;;;;;;;;;6282651;28;20296;-72
2023/04/14 03:54:50;;;;;;;9.90;4.20;;;;;;;;;;6282139;28;20302;-72
2023/04/14 03:57:56;;;;;;;13.17;4.60;;;;;;;;;;6265516;28;20301;-72
2023/04/14 04:01:03;;;;;;;10.20;4.40;;;;;;;;;;6282340;28;20301;-73
2023/04/14 04:04:10;;;;;;;6.43;4.17;;;;;;;;;;6236330;28;20363;-72
2023/04/14 04:07:15;;;;;;;10.00;4.60;;;;;;;;;;6183420;28;20301;-72
2023/04/14 04:10:23;;;;;;;6.53;4.20;;;;;;;;;;6257891;28;20305;-72
2023/04/14 04:13:28;;;;;;;8.77;4.23;;;;;;;;;;6259244;28;20304;-71
2023/04/14 04:16:35;;;;;;;12.33;4.70;;;;;;;;;;6249022;28;20471;-71
2023/04/14 04:19:43;;;;;;;8.90;4.17;;;;;;;;;;6264984;28;20247;-72
2023/04/14 04:22:52;;;;;;;9.83;4.80;;;;;;;;;;6182761;28;20291;-72
2023/04/14 04:25:59;;;;;;;9.60;5.23;;;;;;;;;;6248002;28;20305;-72
2023/04/14 04:29:11;;;;;;;7.40;4.20;;;;;;;;;;6247489;28;20398;-72
2023/04/14 04:32:17;;;;;;;10.80;4.57;;;;;;;;;;6247989;28;20584;-73
2023/04/14 04:35:23;;;;;;;10.23;4.50;;;;;;;;;;6264730;28;20300;-72
2023/04/14 04:38:28;;;;;;;9.10;4.50;;;;;;;;;;6182414;28;20307;-72
2023/04/14 04:41:35;;;;;;;10.90;4.97;;;;;;;;;;6247471;28;20303;-72
2023/04/14 04:44:40;;;;;;;9.67;4.70;;;;;;;;;;6247201;28;20299;-72
2023/04/14 04:47:46;;;;;;;9.07;4.50;;;;;;;;;;6248038;28;20276;-72
2023/04/14 04:50:51;;;;;;;8.13;4.67;;;;;;;;;;6183060;28;20277;-72
2023/04/14 04:53:56;;;;;;;10.40;4.80;;;;;;;;;;6182815;28;20304;-72
2023/04/14 04:57:02;;;;;;;14.27;4.87;;;;;;;;;;6182643;28;20314;-72
2023/04/14 05:00:09;;;;;;;13.87;4.87;;;;;;;;;;6185451;28;20305;-72
2023/04/14 05:03:15;;;;;;;10.43;4.60;;;;;;;;;;6186138;28;20645;-72
2023/04/14 05:06:20;;;;;;;14.10;4.23;;;;;;;;;;6186826;28;20294;-72
2023/04/14 05:09:26;;;;;;;10.43;4.57;;;;;;;;;;6186190;28;20295;-72
2023/04/14 05:12:32;;;;;;;9.50;5.07;;;;;;;;;;6174319;28;20297;-72
2023/04/14 05:15:37;;;;;;;8.37;5.03;;;;;;;;;;6186032;28;20603;-72
2023/04/14 05:18:43;;;;;;;11.23;4.83;;;;;;;;;;6185207;28;20300;-72
2023/04/14 05:21:48;;;;;;;12.90;5.00;;;;;;;;;;6186477;28;20443;-72
2023/04/14 05:24:53;;;;;;;9.07;4.80;;;;;;;;;;6185771;28;20589;-73
2023/04/14 05:28:00;;;;;;;14.23;4.93;;;;;;;;;;6186128;28;20299;-72
2023/04/14 05:31:05;;;;;;;12.27;5.33;;;;;;;;;;6185773;28;20607;-74
2023/04/14 05:34:11;;;;;;;11.10;4.80;;;;;;;;;;6186402;28;20300;-72
2023/04/14 05:37:18;;;;;;;11.37;5.40;;;;;;;;;;6186565;28;20328;-72
2023/04/14 05:40:24;;;;;;;11.77;5.50;;;;;;;;;;6186107;28;20308;-72
2023/04/14 05:43:30;;;;;;;12.90;5.20;;;;;;;;;;6185934;28;20308;-72
2023/04/14 05:46:35;;;;;;;14.80;5.40;;;;;;;;;;6185899;28;20297;-72
2023/04/14 05:49:40;;;;;;;14.30;5.50;;;;;;;;;;6185653;28;20348;-72
2023/04/14 05:52:45;;;;;;;12.00;4.60;;;;;;;;;;6251150;28;20451;-72
2023/04/14 05:55:52;;;;;;;11.77;4.43;;;;;;;;;;6185062;28;20298;-73
2023/04/14 05:58:58;;;;;;;8.70;4.40;;;;;;;;;;6185520;28;20301;-72
2023/04/14 06:02:05;;;;;;;7.47;4.53;;;;;;;;;;6186038;28;20313;-73
2023/04/14 06:05:12;;;;;;;12.27;4.33;;;;;;;;;;6185326;28;20340;-73
2023/04/14 06:08:18;;;;;;;14.67;5.03;;;;;;;;;;6185696;28;20336;-73
2023/04/14 06:11:23;;;;;;;9.83;4.80;;;;;;;;;;6172988;28;20320;-73
2023/04/14 06:14:30;;;;;;;12.73;4.47;;;;;;;;;;6185667;28;20317;-73
2023/04/14 06:17:35;;;;;;;6.50;4.50;;;;;;;;;;6185361;28;20288;-73
2023/04/14 06:20:40;;;;;;;12.47;5.03;;;;;;;;;;6184314;28;20300;-72
2023/04/14 06:23:45;;;;;;;8.80;4.90;;;;;;;;;;6185438;28;20541;-72
2023/04/14 06:26:51;;;;;;;10.33;4.57;;;;;;;;;;6185156;28;20560;-72
2023/04/14 06:30:00;;;;;;;9.40;4.60;;;;;;;;;;6250757;28;20496;-72
2023/04/14 06:33:05;;;;;;;7.70;4.23;;;;;;;;;;6251024;28;20292;-72
2023/04/14 06:36:12;;;;;;;11.50;4.83;;;;;;;;;;6185115;28;20300;-72
2023/04/14 06:39:18;;;;;;;10.57;4.30;;;;;;;;;;6184831;28;20305;-72
2023/04/14 06:42:24;;;;;;;14.27;4.73;;;;;;;;;;6185655;28;20581;-73
2023/04/14 06:45:30;;;;;;;7.90;4.33;;;;;;;;;;6184029;28;20443;-73
2023/04/14 06:48:36;;;;;;;12.40;4.07;;;;;;;;;;6184862;28;20304;-73
2023/04/14 06:51:41;;;;;;;10.33;3.90;;;;;;;;;;6185726;28;20299;-73
2023/04/14 06:54:46;;;;;;;10.10;4.27;;;;;;;;;;6184998;28;20301;-73
2023/04/14 06:57:51;;;;;;;8.97;4.47;;;;;;;;;;6184415;28;20476;-72
2023/04/14 07:00:58;;;;;;;8.00;3.93;;;;;;;;;;6184843;28;20313;-72
2023/04/14 07:04:04;;;;;;;13.97;4.10;;;;;;;;;;6183719;28;20305;-72
2023/04/14 07:07:13;;;;;;;12.43;4.20;;;;;;;;;;6184428;28;20463;-73
2023/04/14 07:10:18;;;;;;;9.83;4.17;;;;;;;;;;6242926;28;20341;-73
2023/04/14 07:13:23;;;;;;;9.37;4.10;;;;;;;;;;6179308;28;20455;-73
2023/04/14 07:16:30;;;;;;;13.47;4.10;;;;;;;;;;6183616;28;20296;-73
2023/04/14 07:19:35;;;;;;;13.30;4.40;;;;;;;;;;6184187;28;20305;-73
2023/04/14 07:22:40;;;;;;;8.77;4.40;;;;;;;;;;6184638;28;20301;-73
2023/04/14 07:25:50;;;;;;;7.50;4.20;;;;;;;;;;6183511;28;20297;-73
2023/04/14 07:28:56;;;;;;;12.63;4.10;;;;;;;;;;6183742;28;20304;-73
2023/04/14 07:32:02;;;;;;;10.63;4.33;;;;;;;;;;6183672;28;20561;-73
2023/04/14 07:35:09;;;;;;;14.43;4.43;;;;;;;;;;6248700;28;20483;-73
2023/04/14 07:38:14;;;;;;;5.57;3.90;;;;;;;;;;6183799;28;20313;-72
2023/04/14 07:41:19;;;;;;;15.57;3.90;;;;;;;;;;6249509;28;20305;-72
2023/04/14 07:44:25;;;;;;;7.13;4.03;;;;;;;;;;6184020;28;20300;-72
2023/04/14 07:47:32;;;;;;;15.00;5.40;;;;;;;;;;6184223;28;20296;-72
2023/04/14 07:50:37;;;;;;;6.43;3.97;;;;;;;;;;6183643;28;20297;-72
2023/04/14 07:53:43;;;;;;;11.63;4.77;;;;;;;;;;6159633;28;20306;-73
2023/04/14 07:56:49;;;;;;;4.70;3.77;;;;;;;;;;6159929;28;20270;-73
2023/04/14 07:59:54;;;;;;;12.00;4.80;;;;;;;;;;6158958;28;20302;-73
2023/04/14 08:03:00;;;;;;;8.20;3.53;;;;;;;;;;6159243;28;20290;-72
2023/04/14 08:06:06;;;;;;;11.23;4.13;;;;;;;;;;6159397;28;20294;-73
2023/04/14 08:09:13;;;;;;;9.60;3.50;;;;;;;;;;6159075;28;20302;-73
2023/04/14 08:12:18;;;;;;;3.80;3.50;;;;;;;;;;6172067;28;20595;-73
2023/04/14 08:15:23;;;;;;;7.03;3.40;;;;;;;;;;6159528;28;20590;-73
2023/04/14 08:18:30;;;;;;;6.53;3.73;;;;;;;;;;6159004;28;20323;-73
2023/04/14 08:21:35;;;;;;;5.87;3.87;;;;;;;;;;6241295;28;20442;-73
2023/04/14 08:24:40;;;;;;;9.40;3.47;;;;;;;;;;6159335;28;20314;-73
2023/04/14 08:27:46;;;;;;;6.83;4.00;;;;;;;;;;6159158;28;20306;-73
2023/04/14 08:30:51;;;;;;;9.53;3.93;;;;;;;;;;6159762;28;20302;-73
2023/04/14 08:33:57;;;;;;;32.20;14.38;;;;;;;;;;6160939;28;20302;-73
2023/04/14 08:37:02;;;;;;;7.30;4.97;;;;;;;;;;6163433;28;20323;-73
2023/04/14 08:40:11;;;;;;;7.57;3.90;;;;;;;;;;6162895;28;20306;-73
2023/04/14 08:43:16;;;;;;;10.73;3.80;;;;;;;;;;6162368;28;20294;-73
2023/04/14 08:46:23;;;;;;;7.82;3.58;;;;;;;;;;6163731;28;20302;-73
2023/04/14 08:49:36;;;;;;;7.67;4.00;;;;;;;;;;6163141;28;20294;-73
2023/04/14 08:52:42;;;;;;;6.27;3.70;;;;;;;;;;6163427;28;20290;-73
2023/04/14 08:55:47;;;;;;;10.67;6.20;;;;;;;;;;6162343;28;20293;-72
2023/04/14 08:58:53;;;;;;;14.13;4.87;;;;;;;;;;6162739;28;20595;-72
2023/04/14 09:01:58;;;;;;;10.27;4.50;;;;;;;;;;6162794;28;20329;-72
2023/04/14 09:05:06;;;;;;;6.63;3.60;;;;;;;;;;6162329;28;20498;-72
2023/04/14 09:08:13;;;;;;;10.93;3.60;;;;;;;;;;6162526;28;20297;-72
2023/04/14 09:11:18;;;;;;;4.72;3.38;;;;;;;;;;6175701;28;20602;-72
2023/04/14 09:14:24;;;;;;;5.67;4.10;;;;;;;;;;6227675;28;20476;-72
2023/04/14 09:17:30;;;;;;;12.13;6.00;;;;;;;;;;6162755;28;20290;-72
2023/04/14 09:20:36;;;;;;;9.10;3.43;;;;;;;;;;6162688;28;20453;-73
2023/04/14 09:23:45;;;;;;;5.70;3.50;;;;;;;;;;6161257;28;20302;-73
2023/04/14 09:26:50;;;;;;;3.92;3.20;;;;;;;;;;6162975;28;20274;-73
2023/04/14 09:29:58;;;;;;;8.20;4.60;;;;;;;;;;6163287;28;20483;-72
2023/04/14 09:33:05;;;;;;;7.90;3.60;;;;;;;;;;6161774;28;20453;-73
2023/04/14 09:36:19;;;;;;;10.40;4.30;;;;;;;;;;6162404;28;20303;-73
2023/04/14 09:39:24;;;;;;;10.97;4.20;;;;;;;;;;6227165;28;20385;-73
2023/04/14 09:42:38;;;;;;;7.63;3.77;;;;;;;;;;6162634;28;20301;-73
2023/04/14 09:45:44;;;;;;;9.47;4.47;;;;;;;;;;6160569;28;20479;-73
2023/04/14 09:48:54;;;;;;;9.60;4.50;;;;;;;;;;6243338;28;20299;-73
2023/04/14 09:52:04;;;;;;;4.97;4.43;;;;;;;;;;6162393;28;20418;-73
2023/04/14 09:55:12;;;;;;;9.27;4.13;;;;;;;;;;6162000;28;20329;-73
2023/04/14 09:58:20;;;;;;;9.10;3.37;;;;;;;;;;6161784;28;20342;-72
2023/04/14 10:01:32;;;;;;;9.00;5.17;;;;;;;;;;6161785;28;20300;-73
2023/04/14 10:04:38;;;;;;;14.77;4.70;;;;;;;;;;6162021;28;20310;-73
2023/04/14 10:07:45;;;;;;;13.40;4.50;;;;;;;;;;6160894;28;20313;-74
2023/04/14 10:10:50;;;;;;;6.90;4.80;;;;;;;;;;6172467;28;20305;-72
2023/04/14 10:13:56;;;;;;;7.23;3.80;;;;;;;;;;6162718;28;20306;-73
2023/04/14 10:17:02;;;;;;;8.23;4.00;;;;;;;;;;6243477;28;20302;-72
2023/04/14 10:20:09;;;;;;;9.00;3.87;;;;;;;;;;6161470;28;20305;-72
2023/04/14 10:23:15;;;;;;;10.63;4.20;;;;;;;;;;6161333;28;20341;-72
2023/04/14 10:26:21;;;;;;;9.30;5.07;;;;;;;;;;6162262;28;20385;-72
2023/04/14 10:29:26;;;;;;;6.90;3.83;;;;;;;;;;6161476;28;20297;-72
2023/04/14 10:32:33;;;;;;;9.83;3.73;;;;;;;;;;6161705;28;20314;-73
2023/04/14 10:35:41;;;;;;;6.83;3.67;;;;;;;;;;6160606;28;20444;-73
2023/04/14 10:38:48;;;;;;;7.83;3.57;;;;;;;;;;6160922;28;20303;-72
2023/04/14 10:41:53;;;;;;;5.73;3.27;;;;;;;;;;6161503;28;20300;-74
2023/04/14 10:45:07;;;;;;;10.07;3.97;;;;;;;;;;6161248;28;20310;-74
2023/04/14 10:48:14;;;;;;;5.37;3.63;;;;;;;;;;6160627;28;20302;-73
2023/04/14 10:51:20;;;;;;;5.80;3.70;;;;;;;;;;6161024;28;20305;-73
2023/04/14 10:54:26;;;;;;;11.93;4.07;;;;;;;;;;6161079;28;20305;-73
2023/04/14 10:57:31;;;;;;;12.03;5.00;;;;;;;;;;6160921;28;20301;-73
2023/04/14 11:00:39;;;;;;;9.97;4.50;;;;;;;;;;6160904;28;20309;-73
2023/04/14 11:03:50;;;;;;;8.10;4.27;;;;;;;;;;6191690;28;20310;-73
2023/04/14 11:07:21;;;;;;;4.03;3.70;;;;;;;;;;6257354;28;20306;-73
2023/04/14 11:10:31;;;;;;;7.83;3.50;;;;;;;;;;6266618;28;20294;-73
2023/04/14 11:13:37;;;;;;;7.13;3.80;;;;;;;;;;6263769;28;20307;-73
2023/04/14 11:16:45;;;;;;;8.60;3.90;;;;;;;;;;6242940;28;20290;-73
2023/04/14 11:20:15;;;;;;;11.70;3.70;;;;;;;;;;6258671;28;20298;-72
2023/04/14 11:23:28;;;;;;;7.03;3.80;;;;;;;;;;6259540;28;20309;-72
2023/04/14 11:26:35;;;;;;;7.87;3.47;;;;;;;;;;6260138;28;20291;-72
2023/04/14 11:29:40;;;;;;;6.37;3.80;;;;;;;;;;6258701;28;20295;-71
2023/04/14 11:32:47;;;;;;;10.93;3.90;;;;;;;;;;6259696;28;20271;-72
2023/04/14 11:35:54;;;;;;;7.83;4.00;;;;;;;;;;6259962;28;20268;-73
2023/04/14 11:38:59;;;;;;;5.40;3.37;;;;;;;;;;6258882;28;20290;-73
2023/04/14 11:42:06;;;;;;;8.10;5.27;;;;;;;;;;6257965;28;20300;-73
2023/04/14 11:45:15;;;;;;;7.80;4.27;;;;;;;;;;6258966;28;20295;-71
2023/04/14 11:48:21;;;;;;;9.03;3.63;;;;;;;;;;6259174;28;20475;-72
2023/04/14 11:51:31;;;;;;;13.43;3.70;;;;;;;;;;6259742;28;20292;-72
2023/04/14 11:54:37;;;;;;;7.77;3.40;;;;;;;;;;6259302;28;20295;-72
2023/04/14 11:57:46;;;;;;;8.07;3.23;;;;;;;;;;6259539;28;20393;-72
2023/04/14 12:00:52;;;;;;;8.10;3.63;;;;;;;;;;6258408;28;20302;-71
2023/04/14 12:04:00;;;;;;;9.77;3.73;;;;;;;;;;6258601;28;20311;-72
2023/04/14 12:07:11;;;;;;;6.37;3.93;;;;;;;;;;6258948;28;20295;-74
2023/04/14 12:10:17;;;;;;;7.83;3.47;;;;;;;;;;6264760;28;20538;-73
2023/04/14 12:13:25;;;;;;;6.80;3.87;;;;;;;;;;6264096;28;20306;-72
2023/04/14 12:16:30;;;;;;;8.77;3.50;;;;;;;;;;6258874;28;20379;-72
2023/04/14 12:19:36;;;;;;;11.07;4.00;;;;;;;;;;6258599;28;20299;-73
2023/04/14 12:22:41;;;;;;;7.83;3.73;;;;;;;;;;6258870;28;20296;-72
2023/04/14 12:25:48;;;;;;;8.40;3.63;;;;;;;;;;6257589;28;20291;-72
2023/04/14 12:28:58;;;;;;;8.57;3.93;;;;;;;;;;6241403;28;20292;-72
2023/04/14 12:32:10;;;;;;;4.33;3.93;;;;;;;;;;6259162;28;20295;-73
2023/04/14 12:35:15;;;;;;;4.03;3.37;;;;;;;;;;6258108;28;20607;-72
2023/04/14 12:38:26;;;;;;;6.27;3.33;;;;;;;;;;6258589;28;20299;-71
2023/04/14 12:41:31;;;;;;;8.43;3.40;;;;;;;;;;6258901;28;20619;-73
2023/04/14 12:44:38;;;;;;;6.57;3.33;;;;;;;;;;6258243;28;20304;-72
2023/04/14 12:47:53;;;;;;;8.60;3.57;;;;;;;;;;6257573;28;20442;-74
2023/04/14 12:51:08;;;;;;;8.20;4.00;;;;;;;;;;6259843;28;20319;-73
2023/04/14 12:54:14;;;;;;;7.47;4.43;;;;;;;;;;6258078;28;20587;-73
2023/04/14 12:57:21;;;;;;;8.57;4.13;;;;;;;;;;6258653;28;20579;-72
2023/04/14 13:00:28;;;;;;;5.50;3.60;;;;;;;;;;6258167;28;20295;-73
2023/04/14 13:03:44;;;;;;;6.53;3.70;;;;;;;;;;6257550;28;20619;-73
2023/04/14 13:06:50;;;;;;;10.27;3.50;;;;;;;;;;6258265;28;20320;-73
2023/04/14 13:09:55;;;;;;;6.70;3.63;;;;;;;;;;6261595;28;20291;-73
2023/04/14 13:13:00;;;;;;;4.83;3.67;;;;;;;;;;6266170;28;20307;-73
2023/04/14 13:16:07;;;;;;;6.40;3.85;;;;;;;;;;6258230;28;20456;-73
2023/04/14 13:19:19;;;;;;;6.97;4.17;;;;;;;;;;6259026;28;20291;-72
2023/04/14 13:22:24;;;;;;;6.53;4.78;;;;;;;;;;6262976;28;20455;-74
2023/04/14 13:25:29;;;;;;;4.65;4.10;;;;;;;;;;6262545;28;20303;-74
2023/04/14 13:28:35;;;;;;;21.97;9.93;;;;;;;;;;6262381;28;20291;-73
2023/04/14 13:31:41;;;;;;;63.67;18.17;;;;;;;;;;6262873;28;20291;-74
2023/04/14 13:34:47;;;;;;;11.20;5.03;;;;;;;;;;6261860;28;20298;-74
2023/04/14 13:37:53;;;;;;;7.03;4.53;;;;;;;;;;6260958;28;20302;-74
2023/04/14 13:40:58;;;;;;;8.63;3.80;;;;;;;;;;6262675;28;20292;-74
2023/04/14 13:44:03;;;;;;;6.50;3.60;;;;;;;;;;6261472;28;20304;-73
2023/04/14 13:47:10;;;;;;;6.40;3.77;;;;;;;;;;6261879;28;20299;-74
2023/04/14 13:50:16;;;;;;;9.23;3.97;;;;;;;;;;6261789;28;20299;-73
2023/04/14 13:53:21;;;;;;;12.70;5.67;;;;;;;;;;6261745;28;20619;-74
2023/04/14 13:56:26;;;;;;;9.70;6.07;;;;;;;;;;6262118;28;20294;-73
2023/04/14 13:59:32;;;;;;;9.27;4.97;;;;;;;;;;6261720;28;20294;-73
2023/04/14 14:02:39;;;;;;;14.47;7.07;;;;;;;;;;6262015;28;20291;-73
2023/04/14 14:05:44;;;;;;;11.80;6.00;;;;;;;;;;6260400;28;20299;-72
2023/04/14 14:09:01;;;;;;;13.90;6.27;;;;;;;;;;6261125;28;20590;-72
2023/04/14 14:12:12;;;;;;;15.33;5.10;;;;;;;;;;6272913;28;20603;-72
2023/04/14 14:15:17;;;;;;;8.57;4.60;;;;;;;;;;6261238;28;20314;-73
2023/04/14 14:18:24;;;;;;;28.20;12.30;;;;;;;;;;6261415;28;20615;-72
2023/04/14 14:21:30;;;;;;;15.47;7.10;;;;;;;;;;6261046;28;20291;-72
2023/04/14 14:24:35;;;;;;;5.93;4.70;;;;;;;;;;6260700;28;20575;-72
2023/04/14 14:27:40;;;;;;;10.30;4.00;;;;;;;;;;6261178;28;20319;-73
2023/04/14 14:30:45;;;;;;;7.97;3.90;;;;;;;;;;6260223;28;20598;-73
2023/04/14 14:33:51;;;;;;;7.83;4.47;;;;;;;;;;6260595;28;20303;-73
2023/04/14 14:36:57;;;;;;;10.77;4.43;;;;;;;;;;6260754;28;20306;-74
2023/04/14 14:40:02;;;;;;;7.20;4.10;;;;;;;;;;6260688;28;20310;-73
2023/04/14 14:43:08;;;;;;;9.90;4.10;;;;;;;;;;6260694;28;20294;-72
2023/04/14 14:46:13;;;;;;;7.03;4.70;;;;;;;;;;6260874;28;20294;-72
2023/04/14 14:49:20;;;;;;;10.73;4.77;;;;;;;;;;6260162;28;20606;-72
2023/04/14 14:52:27;;;;;;;5.47;4.30;;;;;;;;;;6259457;28;20257;-73
2023/04/14 14:55:38;;;;;;;4.97;4.40;;;;;;;;;;6260500;28;20302;-73
2023/04/14 14:58:43;;;;;;;8.77;4.10;;;;;;;;;;6260359;28;20364;-74
2023/04/14 15:01:48;;;;;;;9.93;3.60;;;;;;;;;;6260601;28;20295;-73
2023/04/14 15:04:55;;;;;;;7.47;3.53;;;;;;;;;;6225266;28;20311;-74
2023/04/14 15:08:00;;;;;;;8.70;3.80;;;;;;;;;;6217978;28;20294;-74
2023/04/14 15:11:05;;;;;;;8.90;3.80;;;;;;;;;;6235981;28;20327;-74
2023/04/14 15:14:13;;;;;;;4.30;3.00;;;;;;;;;;6259874;28;20306;-73
2023/04/14 15:17:18;;;;;;;5.70;3.93;;;;;;;;;;6260138;28;20290;-73
2023/04/14 15:20:24;;;;;;;8.37;3.73;;;;;;;;;;6259601;28;20583;-73
2023/04/14 15:23:33;;;;;;;6.93;4.07;;;;;;;;;;6259350;28;20315;-73
2023/04/14 15:26:38;;;;;;;15.10;6.50;;;;;;;;;;6258989;28;20291;-74
2023/04/14 15:29:43;;;;;;;11.57;3.97;;;;;;;;;;6258742;28;20295;-74
2023/04/14 15:32:48;;;;;;;9.60;3.00;;;;;;;;;;6258716;28;20430;-74
2023/04/14 15:35:55;;;;;;;10.20;4.87;;;;;;;;;;6259525;28;20279;-74
2023/04/14 15:39:00;;;;;;;5.27;3.87;;;;;;;;;;6259019;28;20298;-74
2023/04/14 15:42:05;;;;;;;5.77;3.47;;;;;;;;;;6259519;28;20358;-73
2023/04/14 15:45:11;;;;;;;6.77;3.83;;;;;;;;;;6258157;28;20306;-74
2023/04/14 15:48:16;;;;;;;6.57;4.00;;;;;;;;;;6259027;28;20310;-74
2023/04/14 15:51:22;;;;;;;11.63;3.80;;;;;;;;;;6259237;28;20307;-73
2023/04/14 15:54:27;;;;;;;7.60;3.73;;;;;;;;;;6258772;28;20576;-73
2023/04/14 15:57:33;;;;;;;9.13;4.83;;;;;;;;;;6259085;28;20294;-74
2023/04/14 16:00:38;;;;;;;8.20;4.60;;;;;;;;;;6258749;28;20478;-73
2023/04/14 16:03:43;;;;;;;8.67;4.30;;;;;;;;;;6258905;28;20305;-71
2023/04/14 16:06:50;;;;;;;7.73;3.53;;;;;;;;;;6259256;28;20298;-71
2023/04/14 16:09:55;;;;;;;11.47;4.50;;;;;;;;;;6256354;28;20303;-72
2023/04/14 16:13:00;;;;;;;10.33;3.67;;;;;;;;;;6249672;28;20298;-72
2023/04/14 16:16:06;;;;;;;12.13;4.27;;;;;;;;;;6259325;28;20309;-73
2023/04/14 16:19:11;;;;;;;7.57;4.73;;;;;;;;;;6257910;28;20482;-74
2023/04/14 16:22:18;;;;;;;16.97;6.13;;;;;;;;;;6259655;28;20296;-74
2023/04/14 16:25:23;;;;;;;8.70;5.10;;;;;;;;;;6258293;28;20563;-72
2023/04/14 16:28:29;;;;;;;10.33;4.53;;;;;;;;;;6258327;28;20307;-72
2023/04/14 16:31:34;;;;;;;5.67;3.83;;;;;;;;;;6258795;28;20290;-72
2023/04/14 16:34:39;;;;;;;7.37;3.53;;;;;;;;;;6258611;28;20572;-73
2023/04/14 16:37:46;;;;;;;9.10;3.60;;;;;;;;;;6258517;28;20289;-73
2023/04/14 16:40:56;;;;;;;9.60;4.27;;;;;;;;;;6258860;28;20299;-72
2023/04/14 16:44:01;;;;;;;8.97;4.07;;;;;;;;;;6258678;28;20295;-73
2023/04/14 16:47:07;;;;;;;7.50;4.33;;;;;;;;;;6259138;28;20294;-72
2023/04/14 16:50:13;;;;;;;9.33;4.30;;;;;;;;;;6258296;28;20294;-72
2023/04/14 16:53:19;;;;;;;11.60;4.00;;;;;;;;;;6258540;28;20294;-72
2023/04/14 16:56:24;;;;;;;12.13;4.40;;;;;;;;;;6263622;28;20303;-73
2023/04/14 16:59:30;;;;;;;8.63;4.07;;;;;;;;;;6263471;28;20470;-72
2023/04/14 17:02:35;;;;;;;5.77;3.63;;;;;;;;;;6263890;28;20476;-71
2023/04/14 17:05:43;;;;;;;10.47;4.57;;;;;;;;;;6261866;28;20333;-74
2023/04/14 17:08:50;;;;;;;6.67;3.83;;;;;;;;;;6262485;28;20550;-74
2023/04/14 17:11:55;;;;;;;10.93;4.40;;;;;;;;;;6250733;28;20471;-73
2023/04/14 17:15:02;;;;;;;8.13;4.40;;;;;;;;;;6262452;28;20290;-73
2023/04/14 17:18:07;;;;;;;7.63;3.77;;;;;;;;;;6262332;28;20290;-72
2023/04/14 17:21:13;;;;;;;13.13;4.93;;;;;;;;;;6263370;28;20565;-72
2023/04/14 17:24:19;;;;;;;7.43;4.80;;;;;;;;;;6263138;28;20299;-71
2023/04/14 17:27:25;;;;;;;6.80;4.20;;;;;;;;;;6262829;28;20294;-72
2023/04/14 17:30:31;;;;;;;7.63;4.47;;;;;;;;;;6262877;28;20294;-72
2023/04/14 17:33:36;;;;;;;11.63;5.00;;;;;;;;;;6262381;28;20299;-75
2023/04/14 17:36:41;;;;;;;5.60;3.97;;;;;;;;;;6263217;28;20298;-72
2023/04/14 17:39:48;;;;;;;9.50;4.23;;;;;;;;;;6262190;28;20298;-73
2023/04/14 17:42:53;;;;;;;10.93;4.80;;;;;;;;;;6262389;28;20302;-73
2023/04/14 17:45:59;;;;;;;8.93;4.60;;;;;;;;;;6262987;28;20302;-74
2023/04/14 17:49:04;;;;;;;10.13;6.00;;;;;;;;;;6261844;28;20433;-73
2023/04/14 17:52:11;;;;;;;8.63;3.97;;;;;;;;;;6262692;28;20297;-74
2023/04/14 17:55:19;;;;;;;9.03;4.27;;;;;;;;;;6262500;28;20255;-75
2023/04/14 17:58:25;;;;;;;5.50;3.93;;;;;;;;;;6261852;28;20296;-75
2023/04/14 18:01:30;;;;;;;12.20;4.57;;;;;;;;;;6262042;28;20301;-73
2023/04/14 18:04:35;;;;;;;13.90;4.43;;;;;;;;;;6261497;28;20459;-74
2023/04/14 18:07:41;;;;;;;7.50;4.57;;;;;;;;;;6261195;28;20297;-73
2023/04/14 18:10:48;;;;;;;6.17;4.00;;;;;;;;;;6250790;28;20290;-74
2023/04/14 18:13:53;;;;;;;7.13;3.80;;;;;;;;;;6260303;28;20292;-73
2023/04/14 18:16:58;;;;;;;7.57;3.97;;;;;;;;;;6262105;28;20298;-74
2023/04/14 18:20:05;;;;;;;9.43;5.23;;;;;;;;;;6261293;28;20297;-75
2023/04/14 18:23:11;;;;;;;9.87;4.30;;;;;;;;;;6261132;28;20317;-74
2023/04/14 18:26:18;;;;;;;9.20;4.03;;;;;;;;;;6261967;28;20302;-75
2023/04/14 18:29:26;;;;;;;7.53;4.57;;;;;;;;;;6259948;28;20301;-75
2023/04/14 18:32:32;;;;;;;13.80;5.77;;;;;;;;;;6244668;28;20497;-73
2023/04/14 18:35:37;;;;;;;11.07;4.37;;;;;;;;;;6261414;28;20293;-76